sensor_id;sensor_type;location;lat;lon;timestamp;P1;durP1;ratioP1;P2;durP2;ratioP2
59728;SDS011;45588;51.598;5.618;2023-10-13T00:01:48;19.20;;;10.97;;
59728;SDS011;45588;51.598;5.618;2023-10-13T00:04:13;14.18;;;9.82;;
59728;SDS011;45588;51.598;5.618;2023-10-13T00:06:38;20.77;;;17.20;;
59728;SDS011;45588;51.598;5.618;2023-10-13T00:09:03;20.47;;;16.70;;
59728;SDS011;45588;51.598;5.618;2023-10-13T00:11:29;21.40;;;17.98;;
59728;SDS011;45588;51.598;5.618;2023-10-13T00:13:54;16.92;;;9.40;;
59728;SDS011;45588;51.598;5.618;2023-10-13T00:16:20;18.95;;;16.88;;
59728;SDS011;45588;51.598;5.618;2023-10-13T00:18:53;19.48;;;16.63;;
59728;SDS011;45588;51.598;5.618;2023-10-13T00:21:22;19.23;;;16.38;;
59728;SDS011;45588;51.598;5.618;2023-10-13T00:23:56;19.50;;;15.75;;
59728;SDS011;45588;51.598;5.618;2023-10-13T00:26:22;18.27;;;14.85;;
59728;SDS011;45588;51.598;5.618;2023-10-13T00:28:57;18.67;;;16.20;;
59728;SDS011;45588;51.598;5.618;2023-10-13T00:31:41;21.73;;;16.60;;
59728;SDS011;45588;51.598;5.618;2023-10-13T00:34:08;13.23;;;8.18;;
59728;SDS011;45588;51.598;5.618;2023-10-13T00:36:36;16.80;;;9.10;;
59728;SDS011;45588;51.598;5.618;2023-10-13T00:39:02;20.58;;;14.32;;
59728;SDS011;45588;51.598;5.618;2023-10-13T00:41:29;16.85;;;14.82;;
59728;SDS011;45588;51.598;5.618;2023-10-13T00:44:16;20.20;;;15.50;;
59728;SDS011;45588;51.598;5.618;2023-10-13T00:46:41;13.80;;;8.32;;
59728;SDS011;45588;51.598;5.618;2023-10-13T00:49:09;14.80;;;7.88;;
59728;SDS011;45588;51.598;5.618;2023-10-13T00:51:35;13.70;;;7.93;;
59728;SDS011;45588;51.598;5.618;2023-10-13T00:54:02;18.15;;;13.95;;
59728;SDS011;45588;51.598;5.618;2023-10-13T00:56:32;18.50;;;14.45;;
59728;SDS011;45588;51.598;5.618;2023-10-13T00:58:57;17.15;;;15.02;;
59728;SDS011;45588;51.598;5.618;2023-10-13T01:01:27;16.20;;;12.70;;
59728;SDS011;45588;51.598;5.618;2023-10-13T01:03:55;11.38;;;6.85;;
59728;SDS011;45588;51.598;5.618;2023-10-13T01:06:23;13.13;;;7.60;;
59728;SDS011;45588;51.598;5.618;2023-10-13T01:08:58;11.20;;;6.93;;
59728;SDS011;45588;51.598;5.618;2023-10-13T01:11:39;16.92;;;13.20;;
59728;SDS011;45588;51.598;5.618;2023-10-13T01:14:04;11.70;;;7.70;;
59728;SDS011;45588;51.598;5.618;2023-10-13T01:16:31;17.20;;;7.10;;
59728;SDS011;45588;51.598;5.618;2023-10-13T01:18:57;15.80;;;13.43;;
59728;SDS011;45588;51.598;5.618;2023-10-13T01:21:24;18.85;;;13.60;;
59728;SDS011;45588;51.598;5.618;2023-10-13T01:23:52;12.30;;;7.30;;
59728;SDS011;45588;51.598;5.618;2023-10-13T01:26:18;16.80;;;13.20;;
59728;SDS011;45588;51.598;5.618;2023-10-13T01:28:52;13.35;;;10.32;;
59728;SDS011;45588;51.598;5.618;2023-10-13T01:31:21;14.40;;;7.85;;
59728;SDS011;45588;51.598;5.618;2023-10-13T01:33:52;15.70;;;6.28;;
59728;SDS011;45588;51.598;5.618;2023-10-13T01:36:22;19.67;;;12.82;;
59728;SDS011;45588;51.598;5.618;2023-10-13T01:38:47;14.02;;;12.40;;
59728;SDS011;45588;51.598;5.618;2023-10-13T01:41:13;14.20;;;11.63;;
59728;SDS011;45588;51.598;5.618;2023-10-13T01:43:39;14.45;;;11.85;;
59728;SDS011;45588;51.598;5.618;2023-10-13T01:46:04;15.90;;;12.02;;
59728;SDS011;45588;51.598;5.618;2023-10-13T01:48:29;17.65;;;11.63;;
59728;SDS011;45588;51.598;5.618;2023-10-13T01:50:58;15.65;;;6.25;;
59728;SDS011;45588;51.598;5.618;2023-10-13T01:53:25;8.38;;;5.57;;
59728;SDS011;45588;51.598;5.618;2023-10-13T01:55:53;11.80;;;5.80;;
59728;SDS011;45588;51.598;5.618;2023-10-13T01:58:22;10.45;;;5.32;;
59728;SDS011;45588;51.598;5.618;2023-10-13T02:00:48;13.13;;;10.80;;
59728;SDS011;45588;51.598;5.618;2023-10-13T02:03:13;14.60;;;11.23;;
59728;SDS011;45588;51.598;5.618;2023-10-13T02:05:45;12.38;;;10.48;;
59728;SDS011;45588;51.598;5.618;2023-10-13T02:08:14;14.52;;;11.32;;
59728;SDS011;45588;51.598;5.618;2023-10-13T02:10:49;13.77;;;11.57;;
59728;SDS011;45588;51.598;5.618;2023-10-13T02:13:14;9.57;;;6.05;;
59728;SDS011;45588;51.598;5.618;2023-10-13T02:15:41;15.88;;;11.85;;
59728;SDS011;45588;51.598;5.618;2023-10-13T02:18:08;17.80;;;12.73;;
59728;SDS011;45588;51.598;5.618;2023-10-13T02:20:34;18.83;;;13.20;;
59728;SDS011;45588;51.598;5.618;2023-10-13T02:23:06;18.63;;;12.60;;
59728;SDS011;45588;51.598;5.618;2023-10-13T02:25:35;9.90;;;6.65;;
59728;SDS011;45588;51.598;5.618;2023-10-13T02:28:01;16.88;;;7.03;;
59728;SDS011;45588;51.598;5.618;2023-10-13T02:30:26;13.73;;;8.05;;
59728;SDS011;45588;51.598;5.618;2023-10-13T02:32:51;13.43;;;7.85;;
59728;SDS011;45588;51.598;5.618;2023-10-13T02:35:18;15.90;;;7.88;;
59728;SDS011;45588;51.598;5.618;2023-10-13T02:37:43;15.43;;;8.90;;
59728;SDS011;45588;51.598;5.618;2023-10-13T02:40:10;19.02;;;9.43;;
59728;SDS011;45588;51.598;5.618;2023-10-13T02:42:35;16.95;;;9.02;;
59728;SDS011;45588;51.598;5.618;2023-10-13T02:45:01;24.52;;;19.70;;
59728;SDS011;45588;51.598;5.618;2023-10-13T02:47:28;23.20;;;20.58;;
59728;SDS011;45588;51.598;5.618;2023-10-13T02:49:56;19.95;;;11.55;;
59728;SDS011;45588;51.598;5.618;2023-10-13T02:52:25;26.80;;;22.50;;
59728;SDS011;45588;51.598;5.618;2023-10-13T02:54:50;27.92;;;23.98;;
59728;SDS011;45588;51.598;5.618;2023-10-13T02:57:16;26.97;;;24.07;;
59728;SDS011;45588;51.598;5.618;2023-10-13T02:59:42;30.27;;;24.45;;
59728;SDS011;45588;51.598;5.618;2023-10-13T03:02:13;35.55;;;26.05;;
59728;SDS011;45588;51.598;5.618;2023-10-13T03:04:53;32.42;;;26.20;;
59728;SDS011;45588;51.598;5.618;2023-10-13T03:07:27;22.85;;;13.05;;
59728;SDS011;45588;51.598;5.618;2023-10-13T03:12:23;30.95;;;13.18;;
59728;SDS011;45588;51.598;5.618;2023-10-13T03:14:49;19.65;;;12.15;;
59728;SDS011;45588;51.598;5.618;2023-10-13T03:17:19;25.25;;;13.73;;
59728;SDS011;45588;51.598;5.618;2023-10-13T03:19:53;26.58;;;13.27;;
59728;SDS011;45588;51.598;5.618;2023-10-13T03:22:20;34.85;;;26.92;;
59728;SDS011;45588;51.598;5.618;2023-10-13T03:24:55;34.58;;;26.83;;
59728;SDS011;45588;51.598;5.618;2023-10-13T03:27:24;28.00;;;14.45;;
59728;SDS011;45588;51.598;5.618;2023-10-13T03:30:03;33.15;;;27.73;;
59728;SDS011;45588;51.598;5.618;2023-10-13T03:32:35;37.78;;;28.17;;
59728;SDS011;45588;51.598;5.618;2023-10-13T03:35:00;40.07;;;30.20;;
59728;SDS011;45588;51.598;5.618;2023-10-13T03:37:26;36.87;;;29.07;;
59728;SDS011;45588;51.598;5.618;2023-10-13T03:40:12;35.95;;;30.42;;
59728;SDS011;45588;51.598;5.618;2023-10-13T03:42:46;35.17;;;16.38;;
59728;SDS011;45588;51.598;5.618;2023-10-13T03:45:29;38.00;;;29.13;;
59728;SDS011;45588;51.598;5.618;2023-10-13T03:48:01;40.67;;;30.17;;
59728;SDS011;45588;51.598;5.618;2023-10-13T03:50:33;40.95;;;30.50;;
59728;SDS011;45588;51.598;5.618;2023-10-13T03:53:00;26.67;;;14.75;;
59728;SDS011;45588;51.598;5.618;2023-10-13T03:55:26;40.50;;;30.57;;
59728;SDS011;45588;51.598;5.618;2023-10-13T03:57:55;26.25;;;14.98;;
59728;SDS011;45588;51.598;5.618;2023-10-13T04:00:21;40.40;;;30.83;;
59728;SDS011;45588;51.598;5.618;2023-10-13T04:02:48;38.30;;;30.65;;
59728;SDS011;45588;51.598;5.618;2023-10-13T04:05:19;29.40;;;14.23;;
59728;SDS011;45588;51.598;5.618;2023-10-13T04:08:01;25.40;;;14.82;;
59728;SDS011;45588;51.598;5.618;2023-10-13T04:10:45;36.70;;;31.73;;
59728;SDS011;45588;51.598;5.618;2023-10-13T04:13:16;24.67;;;15.88;;
59728;SDS011;45588;51.598;5.618;2023-10-13T04:16:00;39.60;;;32.47;;
59728;SDS011;45588;51.598;5.618;2023-10-13T04:18:40;41.55;;;31.73;;
59728;SDS011;45588;51.598;5.618;2023-10-13T04:21:35;41.95;;;32.03;;
59728;SDS011;45588;51.598;5.618;2023-10-13T04:24:18;37.85;;;31.35;;
59728;SDS011;45588;51.598;5.618;2023-10-13T04:26:44;40.08;;;31.77;;
59728;SDS011;45588;51.598;5.618;2023-10-13T04:29:28;27.10;;;15.27;;
59728;SDS011;45588;51.598;5.618;2023-10-13T04:32:14;37.42;;;30.75;;
59728;SDS011;45588;51.598;5.618;2023-10-13T04:34:40;35.97;;;29.73;;
59728;SDS011;45588;51.598;5.618;2023-10-13T04:37:10;23.98;;;13.70;;
59728;SDS011;45588;51.598;5.618;2023-10-13T04:39:53;23.02;;;12.57;;
59728;SDS011;45588;51.598;5.618;2023-10-13T04:42:24;23.85;;;12.88;;
59728;SDS011;45588;51.598;5.618;2023-10-13T04:45:05;19.83;;;12.00;;
59728;SDS011;45588;51.598;5.618;2023-10-13T04:47:41;23.08;;;12.18;;
59728;SDS011;45588;51.598;5.618;2023-10-13T04:50:21;24.97;;;11.77;;
59728;SDS011;45588;51.598;5.618;2023-10-13T04:52:52;20.95;;;11.10;;
59728;SDS011;45588;51.598;5.618;2023-10-13T04:55:27;19.95;;;10.70;;
59728;SDS011;45588;51.598;5.618;2023-10-13T04:58:13;29.75;;;23.25;;
59728;SDS011;45588;51.598;5.618;2023-10-13T05:01:01;33.60;;;22.58;;
59728;SDS011;45588;51.598;5.618;2023-10-13T05:04:02;19.40;;;10.75;;
59728;SDS011;45588;51.598;5.618;2023-10-13T05:06:30;22.95;;;20.20;;
59728;SDS011;45588;51.598;5.618;2023-10-13T05:09:10;18.20;;;10.60;;
59728;SDS011;45588;51.598;5.618;2023-10-13T05:11:54;18.13;;;9.98;;
59728;SDS011;45588;51.598;5.618;2023-10-13T05:14:39;20.92;;;18.25;;
59728;SDS011;45588;51.598;5.618;2023-10-13T05:17:23;21.85;;;19.00;;
59728;SDS011;45588;51.598;5.618;2023-10-13T05:20:07;22.02;;;17.70;;
59728;SDS011;45588;51.598;5.618;2023-10-13T05:22:50;17.45;;;8.88;;
59728;SDS011;45588;51.598;5.618;2023-10-13T05:25:35;20.13;;;8.93;;
59728;SDS011;45588;51.598;5.618;2023-10-13T05:28:19;19.10;;;16.48;;
59728;SDS011;45588;51.598;5.618;2023-10-13T05:31:03;21.05;;;16.33;;
59728;SDS011;45588;51.598;5.618;2023-10-13T05:33:46;17.42;;;15.38;;
59728;SDS011;45588;51.598;5.618;2023-10-13T05:36:30;17.88;;;14.73;;
59728;SDS011;45588;51.598;5.618;2023-10-13T05:39:14;18.35;;;14.75;;
59728;SDS011;45588;51.598;5.618;2023-10-13T05:41:58;11.50;;;7.40;;
59728;SDS011;45588;51.598;5.618;2023-10-13T05:44:42;11.45;;;7.00;;
59728;SDS011;45588;51.598;5.618;2023-10-13T05:47:26;16.80;;;14.13;;
59728;SDS011;45588;51.598;5.618;2023-10-13T05:50:04;16.48;;;13.90;;
59728;SDS011;45588;51.598;5.618;2023-10-13T05:52:47;16.85;;;15.15;;
59728;SDS011;45588;51.598;5.618;2023-10-13T05:55:24;11.20;;;7.03;;
59728;SDS011;45588;51.598;5.618;2023-10-13T05:58:08;11.30;;;7.10;;
59728;SDS011;45588;51.598;5.618;2023-10-13T06:00:52;17.23;;;14.02;;
59728;SDS011;45588;51.598;5.618;2023-10-13T06:03:37;17.38;;;13.60;;
59728;SDS011;45588;51.598;5.618;2023-10-13T06:06:20;15.68;;;14.07;;
59728;SDS011;45588;51.598;5.618;2023-10-13T06:09:04;13.15;;;7.80;;
59728;SDS011;45588;51.598;5.618;2023-10-13T06:11:48;17.58;;;15.13;;
59728;SDS011;45588;51.598;5.618;2023-10-13T06:14:32;17.25;;;15.45;;
59728;SDS011;45588;51.598;5.618;2023-10-13T06:17:16;18.75;;;16.17;;
59728;SDS011;45588;51.598;5.618;2023-10-13T06:20:00;16.88;;;15.07;;
59728;SDS011;45588;51.598;5.618;2023-10-13T06:22:46;27.95;;;16.13;;
59728;SDS011;45588;51.598;5.618;2023-10-13T06:25:30;17.67;;;14.88;;
59728;SDS011;45588;51.598;5.618;2023-10-13T06:28:14;19.15;;;15.38;;
59728;SDS011;45588;51.598;5.618;2023-10-13T06:30:58;17.52;;;14.48;;
59728;SDS011;45588;51.598;5.618;2023-10-13T06:33:25;12.63;;;7.63;;
59728;SDS011;45588;51.598;5.618;2023-10-13T06:35:57;19.77;;;14.43;;
59728;SDS011;45588;51.598;5.618;2023-10-13T06:38:23;17.55;;;14.00;;
59728;SDS011;45588;51.598;5.618;2023-10-13T06:40:48;18.08;;;7.05;;
59728;SDS011;45588;51.598;5.618;2023-10-13T06:43:15;20.00;;;14.32;;
59728;SDS011;45588;51.598;5.618;2023-10-13T06:48:28;18.48;;;14.10;;
59728;SDS011;45588;51.598;5.618;2023-10-13T06:50:58;18.23;;;13.48;;
59728;SDS011;45588;51.598;5.618;2023-10-13T06:53:28;18.42;;;12.43;;
59728;SDS011;45588;51.598;5.618;2023-10-13T06:55:54;17.10;;;13.18;;
59728;SDS011;45588;51.598;5.618;2023-10-13T06:58:23;18.25;;;12.68;;
59728;SDS011;45588;51.598;5.618;2023-10-13T07:00:49;20.30;;;12.93;;
59728;SDS011;45588;51.598;5.618;2023-10-13T07:03:18;11.68;;;6.65;;
59728;SDS011;45588;51.598;5.618;2023-10-13T07:05:44;19.48;;;12.18;;
59728;SDS011;45588;51.598;5.618;2023-10-13T07:08:10;18.70;;;12.88;;
59728;SDS011;45588;51.598;5.618;2023-10-13T07:10:46;12.43;;;6.70;;
59728;SDS011;45588;51.598;5.618;2023-10-13T07:13:16;14.75;;;6.70;;
59728;SDS011;45588;51.598;5.618;2023-10-13T07:15:42;16.95;;;11.95;;
59728;SDS011;45588;51.598;5.618;2023-10-13T07:18:13;20.65;;;12.95;;
59728;SDS011;45588;51.598;5.618;2023-10-13T07:20:40;20.83;;;12.48;;
59728;SDS011;45588;51.598;5.618;2023-10-13T07:23:11;21.58;;;12.90;;
59728;SDS011;45588;51.598;5.618;2023-10-13T07:25:42;14.90;;;8.02;;
59728;SDS011;45588;51.598;5.618;2023-10-13T07:28:09;10.68;;;6.85;;
59728;SDS011;45588;51.598;5.618;2023-10-13T07:30:35;21.98;;;12.50;;
59728;SDS011;45588;51.598;5.618;2023-10-13T07:33:14;13.20;;;6.28;;
59728;SDS011;45588;51.598;5.618;2023-10-13T07:35:39;18.52;;;11.85;;
59728;SDS011;45588;51.598;5.618;2023-10-13T07:38:06;17.67;;;11.75;;
59728;SDS011;45588;51.598;5.618;2023-10-13T07:40:33;16.48;;;11.00;;
59728;SDS011;45588;51.598;5.618;2023-10-13T07:42:58;12.57;;;6.63;;
59728;SDS011;45588;51.598;5.618;2023-10-13T07:45:28;13.33;;;6.97;;
59728;SDS011;45588;51.598;5.618;2023-10-13T07:48:03;17.85;;;11.35;;
59728;SDS011;45588;51.598;5.618;2023-10-13T07:50:37;17.90;;;11.20;;
59728;SDS011;45588;51.598;5.618;2023-10-13T07:53:02;18.50;;;11.68;;
59728;SDS011;45588;51.598;5.618;2023-10-13T07:55:44;16.00;;;10.73;;
59728;SDS011;45588;51.598;5.618;2023-10-13T07:58:09;16.17;;;9.88;;
59728;SDS011;45588;51.598;5.618;2023-10-13T08:00:37;15.90;;;5.75;;
59728;SDS011;45588;51.598;5.618;2023-10-13T08:05:42;16.30;;;10.00;;
59728;SDS011;45588;51.598;5.618;2023-10-13T08:08:26;16.65;;;9.90;;
59728;SDS011;45588;51.598;5.618;2023-10-13T08:11:02;17.95;;;9.25;;
59728;SDS011;45588;51.598;5.618;2023-10-13T08:13:39;17.60;;;9.40;;
59728;SDS011;45588;51.598;5.618;2023-10-13T08:16:11;16.20;;;8.88;;
59728;SDS011;45588;51.598;5.618;2023-10-13T08:18:49;16.65;;;9.25;;
59728;SDS011;45588;51.598;5.618;2023-10-13T08:21:15;15.23;;;5.97;;
59728;SDS011;45588;51.598;5.618;2023-10-13T08:23:48;12.80;;;5.40;;
59728;SDS011;45588;51.598;5.618;2023-10-13T08:26:19;13.32;;;6.50;;
59728;SDS011;45588;51.598;5.618;2023-10-13T08:29:03;23.05;;;10.15;;
59728;SDS011;45588;51.598;5.618;2023-10-13T08:31:47;17.10;;;5.25;;
59728;SDS011;45588;51.598;5.618;2023-10-13T08:34:31;17.13;;;8.93;;
59728;SDS011;45588;51.598;5.618;2023-10-13T08:37:08;19.73;;;8.32;;
59728;SDS011;45588;51.598;5.618;2023-10-13T08:40:03;14.85;;;8.73;;
59728;SDS011;45588;51.598;5.618;2023-10-13T08:45:08;13.95;;;8.48;;
59728;SDS011;45588;51.598;5.618;2023-10-13T08:47:46;13.05;;;8.32;;
59728;SDS011;45588;51.598;5.618;2023-10-13T08:50:18;15.68;;;7.20;;
59728;SDS011;45588;51.598;5.618;2023-10-13T08:53:12;17.15;;;8.73;;
59728;SDS011;45588;51.598;5.618;2023-10-13T08:58:30;14.43;;;8.05;;
59728;SDS011;45588;51.598;5.618;2023-10-13T09:01:16;19.90;;;8.07;;
59728;SDS011;45588;51.598;5.618;2023-10-13T09:04:21;14.55;;;8.13;;
59728;SDS011;45588;51.598;5.618;2023-10-13T09:07:00;18.05;;;8.20;;
59728;SDS011;45588;51.598;5.618;2023-10-13T09:09:29;14.82;;;8.40;;
59728;SDS011;45588;51.598;5.618;2023-10-13T09:12:01;22.50;;;7.50;;
59728;SDS011;45588;51.598;5.618;2023-10-13T09:14:35;16.48;;;8.68;;
59728;SDS011;45588;51.598;5.618;2023-10-13T09:17:04;16.52;;;7.88;;
59728;SDS011;45588;51.598;5.618;2023-10-13T09:19:43;9.63;;;4.32;;
59728;SDS011;45588;51.598;5.618;2023-10-13T09:22:25;11.80;;;8.30;;
59728;SDS011;45588;51.598;5.618;2023-10-13T09:24:53;14.00;;;7.80;;
59728;SDS011;45588;51.598;5.618;2023-10-13T09:27:18;14.07;;;9.00;;
59728;SDS011;45588;51.598;5.618;2023-10-13T09:29:53;13.60;;;7.27;;
59728;SDS011;45588;51.598;5.618;2023-10-13T09:32:19;19.58;;;8.63;;
59728;SDS011;45588;51.598;5.618;2023-10-13T09:34:46;15.00;;;8.23;;
59728;SDS011;45588;51.598;5.618;2023-10-13T09:37:13;13.73;;;7.80;;
59728;SDS011;45588;51.598;5.618;2023-10-13T09:39:45;18.40;;;8.55;;
59728;SDS011;45588;51.598;5.618;2023-10-13T09:42:13;17.30;;;7.88;;
59728;SDS011;45588;51.598;5.618;2023-10-13T09:44:40;17.35;;;8.18;;
59728;SDS011;45588;51.598;5.618;2023-10-13T09:47:07;17.48;;;8.25;;
59728;SDS011;45588;51.598;5.618;2023-10-13T09:49:43;16.27;;;8.50;;
59728;SDS011;45588;51.598;5.618;2023-10-13T09:52:18;15.55;;;8.07;;
59728;SDS011;45588;51.598;5.618;2023-10-13T09:55:02;14.55;;;7.88;;
59728;SDS011;45588;51.598;5.618;2023-10-13T09:57:29;14.30;;;8.60;;
59728;SDS011;45588;51.598;5.618;2023-10-13T10:00:06;14.25;;;7.60;;
59728;SDS011;45588;51.598;5.618;2023-10-13T10:02:51;14.65;;;8.10;;
59728;SDS011;45588;51.598;5.618;2023-10-13T10:05:25;15.20;;;8.50;;
59728;SDS011;45588;51.598;5.618;2023-10-13T10:07:54;16.45;;;7.70;;
59728;SDS011;45588;51.598;5.618;2023-10-13T10:10:21;19.23;;;8.23;;
59728;SDS011;45588;51.598;5.618;2023-10-13T10:12:48;21.45;;;8.35;;
59728;SDS011;45588;51.598;5.618;2023-10-13T10:15:34;22.58;;;9.52;;
59728;SDS011;45588;51.598;5.618;2023-10-13T10:18:03;13.27;;;7.90;;
59728;SDS011;45588;51.598;5.618;2023-10-13T10:20:29;17.30;;;8.63;;
59728;SDS011;45588;51.598;5.618;2023-10-13T10:23:05;19.63;;;8.40;;
59728;SDS011;45588;51.598;5.618;2023-10-13T10:25:33;14.13;;;7.78;;
59728;SDS011;45588;51.598;5.618;2023-10-13T10:28:03;18.05;;;8.70;;
59728;SDS011;45588;51.598;5.618;2023-10-13T10:30:38;15.75;;;8.32;;
59728;SDS011;45588;51.598;5.618;2023-10-13T10:33:07;16.45;;;8.73;;
59728;SDS011;45588;51.598;5.618;2023-10-13T10:35:37;17.80;;;8.93;;
59728;SDS011;45588;51.598;5.618;2023-10-13T10:38:09;22.67;;;8.50;;
59728;SDS011;45588;51.598;5.618;2023-10-13T10:43:16;14.98;;;8.70;;
59728;SDS011;45588;51.598;5.618;2023-10-13T10:45:45;15.93;;;8.15;;
59728;SDS011;45588;51.598;5.618;2023-10-13T10:48:14;16.63;;;8.40;;
59728;SDS011;45588;51.598;5.618;2023-10-13T10:50:52;21.40;;;8.23;;
59728;SDS011;45588;51.598;5.618;2023-10-13T10:53:23;15.55;;;7.82;;
59728;SDS011;45588;51.598;5.618;2023-10-13T10:56:25;18.42;;;8.65;;
59728;SDS011;45588;51.598;5.618;2023-10-13T10:58:57;14.55;;;8.00;;
59728;SDS011;45588;51.598;5.618;2023-10-13T11:01:22;19.80;;;8.32;;
59728;SDS011;45588;51.598;5.618;2023-10-13T11:03:55;16.63;;;8.57;;
59728;SDS011;45588;51.598;5.618;2023-10-13T11:06:22;15.70;;;9.00;;
59728;SDS011;45588;51.598;5.618;2023-10-13T11:08:49;14.48;;;7.00;;
59728;SDS011;45588;51.598;5.618;2023-10-13T11:11:27;19.08;;;8.80;;
59728;SDS011;45588;51.598;5.618;2023-10-13T11:13:55;18.70;;;7.80;;
59728;SDS011;45588;51.598;5.618;2023-10-13T11:16:44;14.88;;;7.63;;
59728;SDS011;45588;51.598;5.618;2023-10-13T11:21:36;17.90;;;7.85;;
59728;SDS011;45588;51.598;5.618;2023-10-13T11:24:02;15.18;;;8.68;;
59728;SDS011;45588;51.598;5.618;2023-10-13T11:26:37;15.48;;;8.38;;
59728;SDS011;45588;51.598;5.618;2023-10-13T11:29:14;15.27;;;7.82;;
59728;SDS011;45588;51.598;5.618;2023-10-13T11:31:39;12.25;;;7.75;;
59728;SDS011;45588;51.598;5.618;2023-10-13T11:34:04;17.27;;;8.37;;
59728;SDS011;45588;51.598;5.618;2023-10-13T11:36:31;14.68;;;8.05;;
59728;SDS011;45588;51.598;5.618;2023-10-13T11:38:58;17.42;;;8.75;;
59728;SDS011;45588;51.598;5.618;2023-10-13T11:41:23;29.27;;;11.03;;
59728;SDS011;45588;51.598;5.618;2023-10-13T11:43:49;20.10;;;8.63;;
59728;SDS011;45588;51.598;5.618;2023-10-13T11:49:07;18.45;;;8.30;;
59728;SDS011;45588;51.598;5.618;2023-10-13T11:51:39;17.92;;;8.57;;
59728;SDS011;45588;51.598;5.618;2023-10-13T11:54:07;18.25;;;8.15;;
59728;SDS011;45588;51.598;5.618;2023-10-13T11:56:33;20.48;;;8.85;;
59728;SDS011;45588;51.598;5.618;2023-10-13T11:58:58;22.13;;;8.70;;
59728;SDS011;45588;51.598;5.618;2023-10-13T12:01:26;16.45;;;8.38;;
59728;SDS011;45588;51.598;5.618;2023-10-13T12:04:11;32.33;;;9.40;;
59728;SDS011;45588;51.598;5.618;2023-10-13T12:06:55;16.45;;;8.25;;
59728;SDS011;45588;51.598;5.618;2023-10-13T12:09:42;18.38;;;8.82;;
59728;SDS011;45588;51.598;5.618;2023-10-13T12:12:17;14.63;;;8.57;;
59728;SDS011;45588;51.598;5.618;2023-10-13T12:14:42;17.88;;;8.75;;
59728;SDS011;45588;51.598;5.618;2023-10-13T12:17:17;20.65;;;8.45;;
59728;SDS011;45588;51.598;5.618;2023-10-13T12:19:49;16.90;;;9.00;;
59728;SDS011;45588;51.598;5.618;2023-10-13T12:22:16;20.42;;;9.50;;
59728;SDS011;45588;51.598;5.618;2023-10-13T12:24:50;15.38;;;7.97;;
59728;SDS011;45588;51.598;5.618;2023-10-13T12:27:18;18.77;;;9.50;;
59728;SDS011;45588;51.598;5.618;2023-10-13T12:29:50;18.45;;;8.77;;
59728;SDS011;45588;51.598;5.618;2023-10-13T12:32:17;20.67;;;8.85;;
59728;SDS011;45588;51.598;5.618;2023-10-13T12:34:47;14.10;;;8.15;;
59728;SDS011;45588;51.598;5.618;2023-10-13T12:37:27;20.63;;;8.77;;
59728;SDS011;45588;51.598;5.618;2023-10-13T12:40:09;23.65;;;8.93;;
59728;SDS011;45588;51.598;5.618;2023-10-13T12:42:52;20.02;;;8.63;;
59728;SDS011;45588;51.598;5.618;2023-10-13T12:45:43;15.45;;;8.07;;
59728;SDS011;45588;51.598;5.618;2023-10-13T12:48:27;23.45;;;9.23;;
59728;SDS011;45588;51.598;5.618;2023-10-13T12:51:11;21.13;;;9.38;;
59728;SDS011;45588;51.598;5.618;2023-10-13T12:56:11;19.98;;;9.10;;
59728;SDS011;45588;51.598;5.618;2023-10-13T12:58:36;20.77;;;9.47;;
59728;SDS011;45588;51.598;5.618;2023-10-13T13:01:02;18.17;;;8.82;;
59728;SDS011;45588;51.598;5.618;2023-10-13T13:03:31;20.02;;;8.23;;
59728;SDS011;45588;51.598;5.618;2023-10-13T13:05:57;18.85;;;8.15;;
59728;SDS011;45588;51.598;5.618;2023-10-13T13:08:22;16.10;;;8.10;;
59728;SDS011;45588;51.598;5.618;2023-10-13T13:10:48;22.98;;;8.13;;
59728;SDS011;45588;51.598;5.618;2023-10-13T13:13:13;17.52;;;8.13;;
59728;SDS011;45588;51.598;5.618;2023-10-13T13:15:41;26.27;;;8.77;;
59728;SDS011;45588;51.598;5.618;2023-10-13T13:18:06;21.60;;;8.30;;
59728;SDS011;45588;51.598;5.618;2023-10-13T13:20:36;20.65;;;7.82;;
59728;SDS011;45588;51.598;5.618;2023-10-13T13:23:04;20.67;;;8.95;;
59728;SDS011;45588;51.598;5.618;2023-10-13T13:25:29;17.52;;;7.50;;
59728;SDS011;45588;51.598;5.618;2023-10-13T13:27:55;16.27;;;7.30;;
59728;SDS011;45588;51.598;5.618;2023-10-13T13:30:20;16.95;;;6.78;;
59728;SDS011;45588;51.598;5.618;2023-10-13T13:32:47;21.00;;;7.60;;
59728;SDS011;45588;51.598;5.618;2023-10-13T13:35:13;21.70;;;7.38;;
59728;SDS011;45588;51.598;5.618;2023-10-13T13:37:43;15.57;;;6.88;;
59728;SDS011;45588;51.598;5.618;2023-10-13T13:40:09;16.30;;;6.90;;
59728;SDS011;45588;51.598;5.618;2023-10-13T13:42:44;19.83;;;7.65;;
59728;SDS011;45588;51.598;5.618;2023-10-13T13:45:15;18.45;;;7.93;;
59728;SDS011;45588;51.598;5.618;2023-10-13T13:47:52;16.50;;;7.28;;
59728;SDS011;45588;51.598;5.618;2023-10-13T13:52:49;18.27;;;7.32;;
59728;SDS011;45588;51.598;5.618;2023-10-13T13:55:14;20.33;;;8.00;;
59728;SDS011;45588;51.598;5.618;2023-10-13T13:57:42;16.67;;;7.15;;
59728;SDS011;45588;51.598;5.618;2023-10-13T14:00:08;18.55;;;7.40;;
59728;SDS011;45588;51.598;5.618;2023-10-13T14:02:34;19.00;;;8.43;;
59728;SDS011;45588;51.598;5.618;2023-10-13T14:05:00;17.52;;;7.15;;
59728;SDS011;45588;51.598;5.618;2023-10-13T14:07:27;20.60;;;8.07;;
59728;SDS011;45588;51.598;5.618;2023-10-13T14:09:57;17.67;;;7.78;;
59728;SDS011;45588;51.598;5.618;2023-10-13T14:12:31;16.35;;;6.75;;
59728;SDS011;45588;51.598;5.618;2023-10-13T14:15:09;19.95;;;7.13;;
59728;SDS011;45588;51.598;5.618;2023-10-13T14:17:48;21.07;;;8.20;;
59728;SDS011;45588;51.598;5.618;2023-10-13T14:20:16;19.50;;;6.78;;
59728;SDS011;45588;51.598;5.618;2023-10-13T14:22:44;21.33;;;6.95;;
59728;SDS011;45588;51.598;5.618;2023-10-13T14:25:13;17.50;;;7.47;;
59728;SDS011;45588;51.598;5.618;2023-10-13T14:27:39;16.23;;;6.90;;
59728;SDS011;45588;51.598;5.618;2023-10-13T14:30:04;17.90;;;6.90;;
59728;SDS011;45588;51.598;5.618;2023-10-13T14:32:30;16.30;;;7.53;;
59728;SDS011;45588;51.598;5.618;2023-10-13T14:34:55;15.70;;;7.57;;
59728;SDS011;45588;51.598;5.618;2023-10-13T14:37:21;14.63;;;6.88;;
59728;SDS011;45588;51.598;5.618;2023-10-13T14:39:54;19.70;;;7.75;;
59728;SDS011;45588;51.598;5.618;2023-10-13T14:42:25;22.52;;;7.82;;
59728;SDS011;45588;51.598;5.618;2023-10-13T14:44:50;16.30;;;7.38;;
59728;SDS011;45588;51.598;5.618;2023-10-13T14:47:20;15.35;;;7.07;;
59728;SDS011;45588;51.598;5.618;2023-10-13T14:49:49;14.02;;;7.47;;
59728;SDS011;45588;51.598;5.618;2023-10-13T14:52:14;15.30;;;7.50;;
59728;SDS011;45588;51.598;5.618;2023-10-13T14:54:42;16.88;;;7.20;;
59728;SDS011;45588;51.598;5.618;2023-10-13T14:57:07;18.53;;;7.13;;
59728;SDS011;45588;51.598;5.618;2023-10-13T14:59:33;19.73;;;7.78;;
59728;SDS011;45588;51.598;5.618;2023-10-13T15:01:59;18.40;;;7.70;;
59728;SDS011;45588;51.598;5.618;2023-10-13T15:04:24;11.18;;;7.53;;
59728;SDS011;45588;51.598;5.618;2023-10-13T15:06:49;19.52;;;8.23;;
59728;SDS011;45588;51.598;5.618;2023-10-13T15:09:15;15.85;;;7.65;;
59728;SDS011;45588;51.598;5.618;2023-10-13T15:11:48;18.13;;;7.53;;
59728;SDS011;45588;51.598;5.618;2023-10-13T15:14:13;15.43;;;7.40;;
59728;SDS011;45588;51.598;5.618;2023-10-13T15:16:38;18.27;;;7.47;;
59728;SDS011;45588;51.598;5.618;2023-10-13T15:19:04;15.27;;;7.90;;
59728;SDS011;45588;51.598;5.618;2023-10-13T15:21:31;18.80;;;8.13;;
59728;SDS011;45588;51.598;5.618;2023-10-13T15:24:03;14.25;;;7.45;;